createdAt,value
2016-06-02T00:00:28.204Z,0
2016-06-02T00:01:28.238Z,0
2016-06-02T00:02:28.288Z,0
2016-06-02T00:03:28.481Z,0
2016-06-02T00:04:28.515Z,0
2016-06-02T00:05:28.532Z,0
2016-06-02T00:06:28.267Z,0
2016-06-02T00:07:28.629Z,0
2016-06-02T00:08:28.663Z,0
2016-06-02T00:09:28.713Z,0
2016-06-02T00:10:30.109Z,0
2016-06-02T00:11:28.765Z,0
2016-06-02T00:12:28.798Z,0
2016-06-02T00:13:28.849Z,0
2016-06-02T00:14:28.742Z,0
2016-06-02T00:15:28.948Z,0
2016-06-02T00:16:28.825Z,0
2016-06-02T00:17:28.859Z,0
2016-06-02T00:18:29.065Z,0
2016-06-02T00:19:29.084Z,0
2016-06-02T00:20:28.945Z,0
2016-06-02T00:21:29.167Z,0
2016-06-02T00:22:29.045Z,0
2016-06-02T00:23:29.063Z,0
2016-06-02T00:24:29.491Z,0
2016-06-02T00:25:29.241Z,0
2016-06-02T00:26:29.352Z,0
2016-06-02T00:27:29.402Z,0
2016-06-02T00:28:29.421Z,0
2016-06-02T00:29:29.454Z,0
2016-06-02T00:30:29.489Z,0
2016-06-02T00:31:29.554Z,0
2016-06-02T00:32:29.415Z,0
2016-06-02T00:33:29.621Z,0
2016-06-02T00:34:29.655Z,0
2016-06-02T00:35:29.690Z,0
2016-06-02T00:36:29.723Z,0
2016-06-02T00:37:29.757Z,0
2016-06-02T00:38:29.635Z,0
2016-06-02T00:39:29.935Z,0
2016-06-02T00:40:30.112Z,0
2016-06-02T00:41:29.768Z,0
2016-06-02T00:42:29.973Z,0
2016-06-02T00:43:29.992Z,0
2016-06-02T00:44:30.026Z,0
2016-06-02T00:45:30.060Z,0
2016-06-02T00:46:30.109Z,0
2016-06-02T00:47:30.143Z,0
2016-06-02T00:48:30.178Z,0
2016-06-02T00:49:30.211Z,0
2016-06-02T00:50:30.245Z,0
2016-06-02T00:51:30.279Z,0
2016-06-02T00:52:30.329Z,0
2016-06-02T00:53:30.222Z,0
2016-06-02T00:54:30.444Z,0
2016-06-02T00:55:30.886Z,0
2016-06-02T00:56:30.464Z,0
2016-06-02T00:57:30.499Z,0
2016-06-02T00:58:30.547Z,0
2016-06-02T00:59:30.582Z,0
2016-06-02T01:00:30.616Z,0
2016-06-02T01:01:30.510Z,0
2016-06-02T01:02:30.715Z,0
2016-06-02T01:03:30.733Z,0
2016-06-02T01:04:30.783Z,0
2016-06-02T01:05:30.660Z,0
2016-06-02T01:06:30.851Z,0
2016-06-02T01:07:30.869Z,0
2016-06-02T01:08:30.762Z,0
2016-06-02T01:09:31.234Z,0
2016-06-02T01:10:31.268Z,0
2016-06-02T01:11:31.036Z,0
2016-06-02T01:12:31.070Z,0
2016-06-02T01:13:30.963Z,0
2016-06-02T01:14:31.154Z,0
2016-06-02T01:15:31.188Z,0
2016-06-02T01:16:31.065Z,0
2016-06-02T01:17:31.271Z,0
2016-06-02T01:18:31.290Z,0
2016-06-02T01:19:31.167Z,0
2016-06-02T01:20:31.373Z,0
2016-06-02T01:21:31.407Z,0
2016-06-02T01:22:31.284Z,0
2016-06-02T01:23:31.475Z,0
2016-06-02T01:24:31.918Z,0
2016-06-02T01:25:32.170Z,0
2016-06-02T01:26:31.592Z,0
2016-06-02T01:27:31.642Z,0
2016-06-02T01:28:31.504Z,0
2016-06-02T01:29:31.710Z,0
2016-06-02T01:30:31.744Z,0
2016-06-02T01:31:31.778Z,0
2016-06-02T01:32:31.827Z,0
2016-06-02T01:33:31.705Z,0
2016-06-02T01:34:31.739Z,0
2016-06-02T01:35:31.772Z,0
2016-06-02T01:36:31.963Z,0
2016-06-02T01:37:31.997Z,0
2016-06-02T01:38:31.734Z,0
2016-06-02T01:39:33.677Z,0
2016-06-02T01:40:32.193Z,0
2016-06-02T01:41:32.164Z,0
2016-06-02T01:42:32.198Z,0
2016-06-02T01:43:32.248Z,0
2016-06-02T01:44:32.282Z,0
2016-06-02T01:45:32.159Z,0
2016-06-02T01:46:32.193Z,0
2016-06-02T01:47:32.383Z,0
2016-06-02T01:48:32.432Z,0
2016-06-02T01:49:32.467Z,0
2016-06-02T01:50:32.500Z,0
2016-06-02T01:51:32.534Z,0
2016-06-02T01:52:32.568Z,0
2016-06-02T01:53:32.618Z,0
2016-06-02T01:54:32.683Z,0
2016-06-02T01:55:32.623Z,0
2016-06-02T01:56:32.719Z,0
2016-06-02T01:57:32.770Z,0
2016-06-02T01:58:32.630Z,0
2016-06-02T01:59:32.681Z,0
2016-06-02T02:00:32.714Z,0
2016-06-02T02:01:32.921Z,0
2016-06-02T02:02:32.954Z,0
2016-06-02T02:03:32.972Z,0
2016-06-02T02:04:32.866Z,0
2016-06-02T02:05:33.057Z,0
2016-06-02T02:06:33.090Z,0
2016-06-02T02:07:33.140Z,0
2016-06-02T02:08:33.173Z,0
2016-06-02T02:09:33.052Z,0
2016-06-02T02:10:32.789Z,0
2016-06-02T02:11:33.276Z,0
2016-06-02T02:12:33.169Z,0
2016-06-02T02:13:33.344Z,0
2016-06-02T02:14:33.237Z,0
2016-06-02T02:15:33.411Z,0
2016-06-02T02:16:33.461Z,0
2016-06-02T02:17:33.495Z,0
2016-06-02T02:18:33.388Z,0
2016-06-02T02:19:33.562Z,0
2016-06-02T02:20:33.612Z,0
2016-06-02T02:21:33.645Z,0
2016-06-02T02:22:33.681Z,0
2016-06-02T02:23:33.714Z,0
2016-06-02T02:24:33.451Z,0
2016-06-02T02:25:33.875Z,0
2016-06-02T02:26:33.848Z,0
2016-06-02T02:27:33.865Z,0
2016-06-02T02:28:33.914Z,0
2016-06-02T02:29:33.637Z,0
2016-06-02T02:30:33.983Z,0
2016-06-02T02:31:33.860Z,0
2016-06-02T02:32:33.894Z,4
2016-06-02T02:33:33.928Z,4
2016-06-02T02:34:33.978Z,4
2016-06-02T02:35:34.168Z,0
2016-06-02T02:36:33.890Z,4
2016-06-02T02:37:34.236Z,4
2016-06-02T02:38:34.271Z,0
2016-06-02T02:39:35.071Z,4
2016-06-02T02:40:34.212Z,8
2016-06-02T02:41:34.247Z,4
2016-06-02T02:42:34.437Z,8
2016-06-02T02:43:34.455Z,8
2016-06-02T02:44:34.489Z,8
2016-06-02T02:45:34.539Z,8
2016-06-02T02:46:34.557Z,8
2016-06-02T02:47:34.450Z,8
2016-06-02T02:48:34.641Z,12
2016-06-02T02:49:34.518Z,16
2016-06-02T02:50:34.708Z,16
2016-06-02T02:51:34.743Z,16
2016-06-02T02:52:34.776Z,20
2016-06-02T02:53:34.670Z,24
2016-06-02T02:54:35.172Z,28
2016-06-02T02:55:34.909Z,28
2016-06-02T02:56:34.928Z,32
2016-06-02T02:57:34.806Z,36
2016-06-02T02:58:34.995Z,40
2016-06-02T02:59:34.905Z,44
2016-06-02T03:00:35.080Z,52
2016-06-02T03:01:35.113Z,56
2016-06-02T03:02:35.147Z,60
2016-06-02T03:03:35.197Z,68
2016-06-02T03:04:35.216Z,72
2016-06-02T03:05:35.264Z,80
2016-06-02T03:06:34.985Z,92
2016-06-02T03:07:35.348Z,96
2016-06-02T03:08:35.366Z,104
2016-06-02T03:09:35.932Z,116
2016-06-02T03:10:35.653Z,128
2016-06-02T03:11:35.468Z,136
2016-06-02T03:12:35.518Z,148
2016-06-02T03:13:35.536Z,160
2016-06-02T03:14:35.430Z,172
2016-06-02T03:15:35.635Z,184
2016-06-02T03:16:35.513Z,200
2016-06-02T03:17:35.703Z,212
2016-06-02T03:18:35.721Z,228
2016-06-02T03:19:35.458Z,244
2016-06-02T03:20:35.820Z,256
2016-06-02T03:21:35.839Z,276
2016-06-02T03:22:35.732Z,292
2016-06-02T03:23:35.906Z,312
2016-06-02T03:24:35.956Z,332
2016-06-02T03:25:37.383Z,352
2016-06-02T03:26:36.008Z,368
2016-06-02T03:27:36.058Z,392
2016-06-02T03:28:36.092Z,412
2016-06-02T03:29:36.010Z,440
2016-06-02T03:30:36.225Z,464
2016-06-02T03:31:36.284Z,484
2016-06-02T03:32:36.031Z,508
2016-06-02T03:33:36.294Z,536
2016-06-02T03:34:36.446Z,560
2016-06-02T03:35:36.334Z,588
2016-06-02T03:36:36.549Z,616
2016-06-02T03:37:36.451Z,644
2016-06-02T03:38:36.635Z,672
2016-06-02T03:39:36.907Z,700
2016-06-02T03:40:36.725Z,732
2016-06-02T03:41:36.747Z,764
2016-06-02T03:42:36.799Z,796
2016-06-02T03:43:36.836Z,824
2016-06-02T03:44:36.871Z,860
2016-06-02T03:45:36.750Z,896
2016-06-02T03:46:36.785Z,928
2016-06-02T03:47:36.976Z,964
2016-06-02T03:48:36.871Z,1000
2016-06-02T03:49:36.906Z,1036
2016-06-02T03:50:37.096Z,1076
2016-06-02T03:51:36.974Z,1104
2016-06-02T03:52:37.180Z,1136
2016-06-02T03:53:37.043Z,1172
2016-06-02T03:54:38.111Z,1216
2016-06-02T03:55:37.283Z,1252
2016-06-02T03:56:37.302Z,1292
2016-06-02T03:57:37.196Z,1332
2016-06-02T03:58:37.387Z,1372
2016-06-02T03:59:37.420Z,1404
2016-06-02T04:00:37.157Z,1448
2016-06-02T04:01:37.347Z,1480
2016-06-02T04:02:37.538Z,1516
2016-06-02T04:03:37.572Z,1552
2016-06-02T04:04:37.621Z,1600
2016-06-02T04:05:37.639Z,1640
2016-06-02T04:06:37.689Z,1676
2016-06-02T04:07:37.708Z,1716
2016-06-02T04:08:37.601Z,1752
2016-06-02T04:09:37.556Z,1796
2016-06-02T04:10:38.153Z,1816
2016-06-02T04:11:37.702Z,1844
2016-06-02T04:12:37.892Z,1880
2016-06-02T04:13:37.926Z,1928
2016-06-02T04:14:37.819Z,1940
2016-06-02T04:15:37.854Z,1988
2016-06-02T04:16:37.903Z,2020
2016-06-02T04:17:38.077Z,2076
2016-06-02T04:18:38.112Z,2124
2016-06-02T04:19:37.990Z,2180
2016-06-02T04:20:38.195Z,2220
2016-06-02T04:21:38.229Z,2280
2016-06-02T04:22:38.263Z,2364
2016-06-02T04:23:38.313Z,2420
2016-06-02T04:24:38.221Z,2496
2016-06-02T04:25:39.180Z,2580
2016-06-02T04:26:38.102Z,2676
2016-06-02T04:27:38.464Z,3168
2016-06-02T04:28:38.482Z,3924
2016-06-02T04:29:38.548Z,4368
2016-06-02T04:30:38.582Z,4616
2016-06-02T04:31:38.444Z,4876
2016-06-02T04:32:38.634Z,5064
2016-06-02T04:33:38.667Z,5304
2016-06-02T04:34:38.717Z,5512
2016-06-02T04:35:38.736Z,5640
2016-06-02T04:36:38.785Z,5832
2016-06-02T04:37:38.663Z,5984
2016-06-02T04:38:38.853Z,6168
2016-06-02T04:39:39.262Z,6372
2016-06-02T04:40:41.205Z,6620
2016-06-02T04:41:38.970Z,6788
2016-06-02T04:42:38.848Z,6996
2016-06-02T04:43:38.898Z,7196
2016-06-02T04:44:39.088Z,7344
2016-06-02T04:45:39.122Z,7452
2016-06-02T04:46:39.155Z,7448
2016-06-02T04:47:39.191Z,7572
2016-06-02T04:48:39.224Z,7804
2016-06-02T04:49:39.274Z,7952
2016-06-02T04:50:39.151Z,8100
2016-06-02T04:51:39.357Z,8364
2016-06-02T04:52:39.406Z,8392
2016-06-02T04:53:39.424Z,8376
2016-06-02T04:54:39.568Z,8488
2016-06-02T04:55:39.352Z,8384
2016-06-02T04:56:39.542Z,8672
2016-06-02T04:57:39.576Z,8912
2016-06-02T04:58:39.626Z,9088
2016-06-02T04:59:39.643Z,9124
2016-06-02T05:00:39.693Z,9296
2016-06-02T05:01:39.743Z,9436
2016-06-02T05:02:39.777Z,9880
2016-06-02T05:03:39.812Z,10088
2016-06-02T05:04:39.548Z,10168
2016-06-02T05:05:39.895Z,10764
2016-06-02T05:06:39.787Z,10808
2016-06-02T05:07:40.009Z,10792
2016-06-02T05:08:40.027Z,11060
2016-06-02T05:09:40.342Z,11384
2016-06-02T05:10:40.598Z,11708
2016-06-02T05:11:40.130Z,11624
2016-06-02T05:12:40.194Z,11812
2016-06-02T05:13:39.916Z,11764
2016-06-02T05:14:40.106Z,11860
2016-06-02T05:15:40.297Z,11752
2016-06-02T05:16:40.189Z,11724
2016-06-02T05:17:40.396Z,12304
2016-06-02T05:18:40.273Z,11968
2016-06-02T05:19:40.464Z,12300
2016-06-02T05:20:40.513Z,11656
2016-06-02T05:21:40.406Z,10936
2016-06-02T05:22:40.581Z,8940
2016-06-02T05:23:40.646Z,9260
2016-06-02T05:24:58.135Z,12796
2016-06-02T05:25:40.635Z,13364
2016-06-02T05:26:40.779Z,13740
2016-06-02T05:27:40.798Z,13796
2016-06-02T05:28:40.847Z,13760
2016-06-02T05:29:40.740Z,14620
2016-06-02T05:30:40.774Z,15200
2016-06-02T05:31:40.668Z,14728
2016-06-02T05:32:40.998Z,14284
2016-06-02T05:33:41.048Z,14848
2016-06-02T05:34:41.082Z,15072
2016-06-02T05:35:41.132Z,14656
2016-06-02T05:36:41.165Z,15072
2016-06-02T05:37:41.075Z,15648
2016-06-02T05:38:41.265Z,15648
2016-06-02T05:39:41.798Z,16512
2016-06-02T05:40:42.301Z,18368
2016-06-02T05:41:41.226Z,18528
2016-06-02T05:42:41.431Z,17696
2016-06-02T05:43:41.466Z,16032
2016-06-02T05:44:41.514Z,18144
2016-06-02T05:45:41.564Z,18816
2016-06-02T05:46:41.598Z,16384
2016-06-02T05:47:41.648Z,14496
2016-06-02T05:48:41.697Z,12916
2016-06-02T05:49:41.716Z,11412
2016-06-02T05:50:41.766Z,14672
2016-06-02T05:51:41.815Z,18784
2016-06-02T05:52:41.693Z,21760
2016-06-02T05:53:41.742Z,21440
2016-06-02T05:54:42.511Z,19072
2016-06-02T05:55:42.435Z,11892
2016-06-02T05:56:41.876Z,9776
2016-06-02T05:57:41.753Z,8296
2016-06-02T05:58:42.115Z,6236
2016-06-02T05:59:42.165Z,5948
2016-06-02T06:00:42.199Z,6284
2016-06-02T06:01:42.232Z,5568
2016-06-02T06:02:42.298Z,5532
2016-06-02T06:03:42.332Z,5556
2016-06-02T06:04:42.381Z,5592
2016-06-02T06:05:42.415Z,5524
2016-06-02T06:06:42.292Z,5504
2016-06-02T06:07:42.343Z,5592
2016-06-02T06:08:42.376Z,5612
2016-06-02T06:09:43.020Z,5504
2016-06-02T06:10:42.648Z,5656
2016-06-02T06:11:42.509Z,5544
2016-06-02T06:12:42.731Z,5492
2016-06-02T06:13:42.734Z,5432
2016-06-02T06:14:42.799Z,5512
2016-06-02T06:15:42.833Z,5548
2016-06-02T06:16:42.867Z,5596
2016-06-02T06:17:42.900Z,5792
2016-06-02T06:18:42.794Z,6088
2016-06-02T06:19:43.000Z,6212
2016-06-02T06:20:43.034Z,6076
2016-06-02T06:21:43.069Z,6480
2016-06-02T06:22:43.132Z,6040
2016-06-02T06:23:43.152Z,5772
2016-06-02T06:24:44.920Z,5828
2016-06-02T06:25:42.954Z,5856
2016-06-02T06:26:43.269Z,6132
2016-06-02T06:27:43.303Z,6224
2016-06-02T06:28:43.196Z,7080
2016-06-02T06:29:43.386Z,6368
2016-06-02T06:30:43.436Z,6832
2016-06-02T06:31:43.313Z,6492
2016-06-02T06:32:43.207Z,6384
2016-06-02T06:33:43.569Z,6588
2016-06-02T06:34:43.587Z,6828
2016-06-02T06:35:43.652Z,6944
2016-06-02T06:36:43.655Z,6468
2016-06-02T06:37:43.721Z,6456
2016-06-02T06:38:43.598Z,6592
2016-06-02T06:39:44.351Z,6716
2016-06-02T06:40:45.072Z,6876
2016-06-02T06:41:43.715Z,7048
2016-06-02T06:42:43.906Z,6432
2016-06-02T06:43:43.955Z,6304
2016-06-02T06:44:43.989Z,6364
2016-06-02T06:45:44.022Z,6680
2016-06-02T06:46:44.073Z,6912
2016-06-02T06:47:44.106Z,7340
2016-06-02T06:48:44.156Z,8220
2016-06-02T06:49:44.205Z,7464
2016-06-02T06:50:44.067Z,6744
2016-06-02T06:51:44.274Z,6388
2016-06-02T06:52:44.151Z,6424
2016-06-02T06:53:44.341Z,6304
2016-06-02T06:54:44.703Z,6532
2016-06-02T06:55:44.597Z,6444
2016-06-02T06:56:44.318Z,6288
2016-06-02T06:57:44.493Z,6068
2016-06-02T06:58:44.542Z,5636
2016-06-02T06:59:44.576Z,5484
2016-06-02T07:00:44.626Z,5864
2016-06-02T07:01:44.660Z,5748
2016-06-02T07:02:44.537Z,5616
2016-06-02T07:03:44.571Z,5772
2016-06-02T07:04:44.621Z,5908
2016-06-02T07:05:44.811Z,5876
2016-06-02T07:06:44.860Z,5940
2016-06-02T07:07:44.737Z,6532
2016-06-02T07:08:44.944Z,6984
2016-06-02T07:09:45.400Z,7104
2016-06-02T07:10:45.059Z,6964
2016-06-02T07:11:44.905Z,7156
2016-06-02T07:12:44.956Z,8048
2016-06-02T07:13:45.145Z,8816
2016-06-02T07:14:45.022Z,8316
2016-06-02T07:15:45.229Z,7524
2016-06-02T07:16:45.247Z,7144
2016-06-02T07:17:45.140Z,6948
2016-06-02T07:18:45.331Z,6972
2016-06-02T07:19:45.381Z,7368
2016-06-02T07:20:45.413Z,7844
2016-06-02T07:21:45.448Z,8240
2016-06-02T07:22:45.483Z,8132
2016-06-02T07:23:45.375Z,8204
2016-06-02T07:24:45.425Z,8464
2016-06-02T07:25:46.272Z,8568
2016-06-02T07:26:45.649Z,8796
2016-06-02T07:27:45.683Z,8960
2016-06-02T07:28:45.577Z,9976
2016-06-02T07:29:45.610Z,10568
2016-06-02T07:30:45.816Z,10688
2016-06-02T07:31:45.835Z,11580
2016-06-02T07:32:45.899Z,13200
2016-06-02T07:33:45.762Z,13864
2016-06-02T07:34:45.968Z,12900
2016-06-02T07:35:45.877Z,13268
2016-06-02T07:36:46.051Z,11300
2016-06-02T07:37:45.929Z,10560
2016-06-02T07:38:45.962Z,10520
2016-06-02T07:39:46.887Z,13160
2016-06-02T07:40:46.234Z,13008
2016-06-02T07:41:46.237Z,14532
2016-06-02T07:42:46.129Z,14536
2016-06-02T07:43:46.335Z,17504
2016-06-02T07:44:46.369Z,26112
2016-06-02T07:45:46.403Z,22464
2016-06-02T07:46:46.281Z,30304
2016-06-02T07:47:46.471Z,31968
2016-06-02T07:48:46.553Z,28512
2016-06-02T07:49:46.570Z,19008
2016-06-02T07:50:46.604Z,60000
2016-06-02T07:51:46.653Z,57408
2016-06-02T07:52:46.688Z,21984
2016-06-02T07:53:46.425Z,58016
2016-06-02T07:54:47.412Z,53568
2016-06-02T07:55:47.617Z,76992
2016-06-02T07:56:46.855Z,81088
2016-06-02T07:57:46.904Z,57056
2016-06-02T07:58:46.969Z,16608
2016-06-02T07:59:47.003Z,17472
2016-06-02T08:00:47.038Z,28480
2016-06-02T08:01:47.681Z,43296
2016-06-02T08:02:47.136Z,64800
2016-06-02T08:03:47.170Z,36896
2016-06-02T08:04:47.204Z,21088
2016-06-02T08:05:47.254Z,18752
2016-06-02T08:06:47.303Z,13752
2016-06-02T08:07:47.338Z,16080
2016-06-02T08:08:47.387Z,27776
2016-06-02T08:09:48.154Z,12580
2016-06-02T08:10:47.330Z,11996
2016-06-02T08:11:47.348Z,19488
2016-06-02T08:12:47.569Z,15536
2016-06-02T08:13:47.604Z,16928
2016-06-02T08:14:47.653Z,15744
2016-06-02T08:15:47.686Z,14888
2016-06-02T08:16:47.752Z,14964
2016-06-02T08:17:47.786Z,14200
2016-06-02T08:18:47.836Z,17632
2016-06-02T08:19:47.869Z,15064
2016-06-02T08:20:47.623Z,15056
2016-06-02T08:21:47.969Z,14684
2016-06-02T08:22:48.019Z,13740
2016-06-02T08:23:48.052Z,13500
2016-06-02T08:24:49.086Z,14824
2016-06-02T08:25:48.542Z,18304
2016-06-02T08:26:48.014Z,18496
2016-06-02T08:27:48.219Z,23456
2016-06-02T08:28:48.269Z,18848
2016-06-02T08:29:48.302Z,24800
2016-06-02T08:30:48.352Z,22176
2016-06-02T08:31:48.230Z,17056
2016-06-02T08:32:48.436Z,15376
2016-06-02T08:33:48.469Z,14656
2016-06-02T08:34:48.519Z,15200
2016-06-02T08:35:48.413Z,15744
2016-06-02T08:36:48.603Z,14972
2016-06-02T08:37:48.637Z,14692
2016-06-02T08:38:48.701Z,14524
2016-06-02T08:39:49.220Z,13276
2016-06-02T08:40:49.395Z,11524
2016-06-02T08:41:48.819Z,11612
2016-06-02T08:42:48.853Z,18144
2016-06-02T08:43:48.887Z,17120
2016-06-02T08:44:48.936Z,16448
2016-06-02T08:45:48.986Z,16032
2016-06-02T08:46:49.020Z,16960
2016-06-02T08:47:49.070Z,17408
2016-06-02T08:48:49.103Z,17472
2016-06-02T08:49:49.153Z,14880
2016-06-02T08:50:49.031Z,13708
2016-06-02T08:51:49.252Z,12792
2016-06-02T08:52:49.271Z,13292
2016-06-02T08:53:48.852Z,15280
2016-06-02T08:54:49.917Z,19872
2016-06-02T08:55:49.278Z,30848
2016-06-02T08:56:49.453Z,36320
2016-06-02T08:57:49.330Z,26464
2016-06-02T08:58:49.552Z,22432
2016-06-02T08:59:49.571Z,20448
2016-06-02T09:00:49.621Z,18656
2016-06-02T09:01:49.670Z,19296
2016-06-02T09:02:49.547Z,16864
2016-06-02T09:03:49.754Z,18464
2016-06-02T09:04:49.787Z,19008
2016-06-02T09:05:49.838Z,44000
2016-06-02T09:06:49.887Z,54240
2016-06-02T09:07:49.905Z,59584
2016-06-02T09:08:49.799Z,35328
2016-06-02T09:09:50.348Z,16864
2016-06-02T09:10:49.913Z,14028
2016-06-02T09:11:50.088Z,12300
2016-06-02T09:12:50.153Z,10664
2016-06-02T09:13:50.186Z,9832
2016-06-02T09:14:50.079Z,10708
2016-06-02T09:15:50.115Z,11432
2016-06-02T09:16:50.148Z,10896
2016-06-02T09:17:50.354Z,15904
2016-06-02T09:18:50.403Z,14708
2016-06-02T09:19:50.297Z,15940
2016-06-02T09:20:50.331Z,15616
2016-06-02T09:21:50.208Z,15280
2016-06-02T09:22:50.587Z,14688
2016-06-02T09:23:50.479Z,14700
2016-06-02T09:24:51.201Z,16416
2016-06-02T09:25:50.719Z,25760
2016-06-02T09:26:50.736Z,54880
2016-06-02T09:27:50.631Z,39872
2016-06-02T09:28:50.837Z,51264
2016-06-02T09:29:50.714Z,27808
2016-06-02T09:30:50.780Z,68192
2016-06-02T09:31:50.985Z,48608
2016-06-02T09:32:51.003Z,43360
2016-06-02T09:33:50.897Z,19168
2016-06-02T09:34:51.087Z,15684
2016-06-02T09:35:51.152Z,16576
2016-06-02T09:36:51.030Z,25632
2016-06-02T09:37:51.236Z,32800
2016-06-02T09:38:51.113Z,34208
2016-06-02T09:39:51.335Z,29024
2016-06-02T09:40:51.384Z,57792
2016-06-02T09:41:51.091Z,66240
2016-06-02T09:42:51.468Z,52576
2016-06-02T09:43:51.346Z,28160
2016-06-02T09:44:51.567Z,31520
2016-06-02T09:45:51.601Z,68640
2016-06-02T09:46:51.634Z,41696
2016-06-02T09:47:51.529Z,68352
2016-06-02T09:48:51.734Z,25248
2016-06-02T09:49:51.784Z,26048
2016-06-02T09:50:51.818Z,21248
2016-06-02T09:51:51.867Z,24672
2016-06-02T09:52:51.901Z,39232
2016-06-02T09:53:51.950Z,22560
2016-06-02T09:54:52.313Z,18656
2016-06-02T09:55:52.737Z,18336
2016-06-02T09:56:52.131Z,14824
2016-06-02T09:57:51.992Z,14728
2016-06-02T09:58:52.027Z,18720
2016-06-02T09:59:52.076Z,13224
2016-06-02T10:00:52.126Z,13632
2016-06-02T10:01:52.331Z,15004
2016-06-02T10:02:52.225Z,19712
2016-06-02T10:03:52.431Z,24160
2016-06-02T10:04:52.464Z,24512
2016-06-02T10:05:52.217Z,21216
2016-06-02T10:06:52.564Z,21312
2016-06-02T10:07:52.441Z,21856
2016-06-02T10:08:52.647Z,25504
2016-06-02T10:09:52.665Z,81664
2016-06-02T10:10:52.575Z,43360
2016-06-02T10:11:52.624Z,69632
2016-06-02T10:12:52.814Z,26016
2016-06-02T10:13:52.863Z,39840
2016-06-02T10:14:52.601Z,32448
2016-06-02T10:15:52.963Z,37344
2016-06-02T10:16:52.996Z,69792
2016-06-02T10:17:53.046Z,61984
2016-06-02T10:18:53.080Z,74496
2016-06-02T10:19:52.990Z,32896
2016-06-02T10:20:53.195Z,23104
2016-06-02T10:21:53.073Z,20864
2016-06-02T10:22:53.138Z,36512
2016-06-02T10:23:53.313Z,24352
2016-06-02T10:24:55.190Z,24864
2016-06-02T10:25:53.350Z,17184
2016-06-02T10:26:53.461Z,16896
2016-06-02T10:27:53.512Z,22816
2016-06-02T10:28:53.560Z,65664
2016-06-02T10:29:53.611Z,66432
2016-06-02T10:30:53.644Z,52480
2016-06-02T10:31:53.694Z,46144
2016-06-02T10:32:53.743Z,35520
2016-06-02T10:33:53.792Z,34016
2016-06-02T10:34:53.827Z,15392
2016-06-02T10:35:53.877Z,19808
2016-06-02T10:36:53.769Z,13784
2016-06-02T10:37:53.975Z,15360
2016-06-02T10:38:53.713Z,15524
2016-06-02T10:39:54.074Z,17568
2016-06-02T10:40:54.124Z,15676
2016-06-02T10:41:53.985Z,13604
2016-06-02T10:42:54.035Z,13988
2016-06-02T10:43:54.257Z,17376
2016-06-02T10:44:54.291Z,61664
2016-06-02T10:45:54.184Z,44640
2016-06-02T10:46:54.374Z,47328
2016-06-02T10:47:54.424Z,56320
2016-06-02T10:48:54.474Z,75008
2016-06-02T10:49:54.507Z,77216
2016-06-02T10:50:54.417Z,56512
2016-06-02T10:51:54.591Z,72896
2016-06-02T10:52:54.657Z,54112
2016-06-02T10:53:54.690Z,20544
2016-06-02T10:54:54.756Z,17184
2016-06-02T10:55:54.648Z,16192
2016-06-02T10:56:54.839Z,17248
2016-06-02T10:57:54.903Z,19552
2016-06-02T10:58:54.923Z,24512
2016-06-02T10:59:54.831Z,83360
2016-06-02T11:00:54.865Z,28992
2016-06-02T11:01:55.071Z,27680
2016-06-02T11:02:54.964Z,27424
2016-06-02T11:03:55.014Z,34624
2016-06-02T11:04:55.189Z,44288
2016-06-02T11:05:55.238Z,25888
2016-06-02T11:06:55.288Z,33216
2016-06-02T11:07:55.338Z,86720
2016-06-02T11:08:55.372Z,34304
2016-06-02T11:09:55.843Z,33824
2016-06-02T11:10:55.641Z,68416
2016-06-02T11:11:55.535Z,68960
2016-06-02T11:12:55.397Z,68928
2016-06-02T11:13:55.603Z,67520
2016-06-02T11:14:55.669Z,74912
2016-06-02T11:15:55.702Z,84576
2016-06-02T11:16:55.752Z,91712
2016-06-02T11:17:55.786Z,91520
2016-06-02T11:18:55.680Z,20192
2016-06-02T11:19:55.901Z,51200
2016-06-02T11:20:55.793Z,57920
2016-06-02T11:21:56.000Z,48032
2016-06-02T11:22:56.049Z,64032
2016-06-02T11:23:56.084Z,95904
2016-06-02T11:24:56.492Z,92736
2016-06-02T11:25:57.276Z,85760
2016-06-02T11:26:56.231Z,78208
2016-06-02T11:27:56.141Z,75872
2016-06-02T11:28:56.362Z,69568
2016-06-02T11:29:56.381Z,69824
2016-06-02T11:30:56.431Z,75104
2016-06-02T11:31:56.511Z,66496
2016-06-02T11:32:56.544Z,63136
2016-06-02T11:33:56.579Z,60512
2016-06-02T11:34:56.644Z,17536
2016-06-02T11:35:56.538Z,13676
2016-06-02T11:36:56.587Z,15432
2016-06-02T11:37:56.793Z,23296
2016-06-02T11:38:56.874Z,55840
2016-06-02T11:39:57.314Z,30432
2016-06-02T11:40:58.254Z,44704
2016-06-02T11:41:56.991Z,58496
2016-06-02T11:42:57.057Z,40416
2016-06-02T11:43:57.106Z,18112
2016-06-02T11:44:57.140Z,20320
2016-06-02T11:45:57.205Z,50816
2016-06-02T11:46:57.099Z,34048
2016-06-02T11:47:57.148Z,24960
2016-06-02T11:48:57.354Z,25760
2016-06-02T11:49:57.246Z,52768
2016-06-02T11:50:57.499Z,27840
2016-06-02T11:51:57.502Z,29920
2016-06-02T11:52:57.537Z,27808
2016-06-02T11:53:57.587Z,34176
2016-06-02T11:54:58.151Z,27744
2016-06-02T11:55:57.560Z,26368
2016-06-02T11:56:57.454Z,24448
2016-06-02T11:57:57.784Z,24832
2016-06-02T11:58:57.678Z,25344
2016-06-02T11:59:57.820Z,42400
2016-06-02T12:00:57.793Z,60672
2016-06-02T12:01:57.983Z,61120
2016-06-02T12:02:58.032Z,76160
2016-06-02T12:03:58.081Z,66784
2016-06-02T12:04:58.131Z,68512
2016-06-02T12:05:58.180Z,68512
2016-06-02T12:06:58.214Z,42816
2016-06-02T12:07:58.280Z,28224
2016-06-02T12:08:58.330Z,23392
2016-06-02T12:09:58.380Z,15724
2016-06-02T12:10:58.272Z,13692
2016-06-02T12:11:58.337Z,13296
2016-06-02T12:12:58.372Z,12524
2016-06-02T12:13:58.577Z,12104
2016-06-02T12:14:58.627Z,11876
2016-06-02T12:15:58.692Z,10716
2016-06-02T12:16:58.726Z,13304
2016-06-02T12:17:58.604Z,17472
2016-06-02T12:18:58.668Z,17056
2016-06-02T12:19:58.859Z,38048
2016-06-02T12:20:58.909Z,21760
2016-06-02T12:21:58.958Z,25952
2016-06-02T12:22:59.007Z,30784
2016-06-02T12:23:59.073Z,42272
2016-06-02T12:24:58.951Z,13080
2016-06-02T12:26:00.438Z,9528
2016-06-02T12:26:59.206Z,9332
2016-06-02T12:27:59.084Z,11200
2016-06-02T12:28:59.149Z,11592
2016-06-02T12:29:59.339Z,11692
2016-06-02T12:30:59.248Z,12672
2016-06-02T12:31:59.281Z,13436
2016-06-02T12:32:59.176Z,16416
2016-06-02T12:33:59.522Z,47936
2016-06-02T12:34:59.596Z,64480
2016-06-02T12:35:59.658Z,27968
2016-06-02T12:36:59.735Z,27040
2016-06-02T12:37:59.656Z,71552
2016-06-02T12:38:59.734Z,84960
2016-06-02T12:40:00.414Z,80320
2016-06-02T12:41:00.160Z,52384
2016-06-02T12:41:59.908Z,18432
2016-06-02T12:43:00.124Z,13188
2016-06-02T12:44:00.043Z,10524
2016-06-02T12:45:00.241Z,9224
2016-06-02T12:46:00.294Z,8968
2016-06-02T12:47:00.363Z,9212
2016-06-02T12:48:00.227Z,9632
2016-06-02T12:49:00.468Z,10032
2016-06-02T12:50:00.505Z,10384
2016-06-02T12:51:00.556Z,10720
2016-06-02T12:52:00.590Z,11144
2016-06-02T12:53:00.641Z,11916
2016-06-02T12:54:00.536Z,14280
2016-06-02T12:55:00.587Z,16512
2016-06-02T12:56:00.933Z,29824
2016-06-02T12:57:00.671Z,16128
2016-06-02T12:58:00.877Z,14132
2016-06-02T12:59:00.928Z,13472
2016-06-02T13:00:00.977Z,13060
2016-06-02T13:01:01.027Z,11844
2016-06-02T13:02:01.077Z,11188
2016-06-02T13:03:01.111Z,10468
2016-06-02T13:04:01.160Z,9856
2016-06-02T13:05:01.210Z,9556
2016-06-02T13:06:01.245Z,9548
2016-06-02T13:07:01.293Z,9672
2016-06-02T13:08:01.359Z,9716
2016-06-02T13:09:01.393Z,9492
2016-06-02T13:10:01.693Z,9152
2016-06-02T13:11:01.665Z,8896
2016-06-02T13:12:01.526Z,8812
2016-06-02T13:13:01.560Z,8624
2016-06-02T13:14:01.438Z,8352
2016-06-02T13:15:01.645Z,8060
2016-06-02T13:16:01.537Z,7704
2016-06-02T13:17:01.728Z,7400
2016-06-02T13:18:01.793Z,7048
2016-06-02T13:19:01.826Z,6728
2016-06-02T13:20:01.720Z,6504
2016-06-02T13:21:01.925Z,6296
2016-06-02T13:22:01.959Z,6120
2016-06-02T13:23:02.025Z,5964
2016-06-02T13:24:02.044Z,5792
2016-06-02T13:25:02.811Z,5652
2016-06-02T13:26:02.705Z,5584